Time;durP1;ratioP1;P1;durP2;ratioP2;P2;SDS_P1;SDS_P2;PMS_P1;PMS_P2;Temp;Humidity;BMP_temperature;BMP_pressure;BME280_temperature;BME280_humidity;BME280_pressure;Samples;Min_cycle;Max_cycle;Signal;HPM_P1;HPM_P2
2021/08/13 00:00:11;;;;;;;32.17;22.10;;;17.10;99.90;;;;;;5051567;28;20452;-71
2021/08/13 00:02:38;;;;;;;24.50;22.50;;;17.00;99.90;;;;;;5053845;28;20482;-71
2021/08/13 00:05:06;;;;;;;24.93;22.90;;;17.00;99.90;;;;;;5055208;28;20801;-70
2021/08/13 00:07:34;;;;;;;22.90;20.70;;;17.00;99.90;;;;;;5051142;28;20794;-70
2021/08/13 00:10:00;;;;;;;22.73;20.30;;;17.00;99.90;;;;;;5053639;28;20546;-69
2021/08/13 00:12:27;;;;;;;21.90;20.03;;;17.00;99.90;;;;;;5057780;28;20452;-70
2021/08/13 00:14:57;;;;;;;23.10;21.10;;;17.00;99.90;;;;;;5052918;28;20459;-72
2021/08/13 00:17:25;;;;;;;23.17;20.63;;;17.00;99.90;;;;;;5053863;28;20509;-70
2021/08/13 00:19:51;;;;;;;23.70;21.80;;;17.00;99.90;;;;;;5052724;28;20458;-71
2021/08/13 00:22:18;;;;;;;23.00;20.97;;;17.00;99.90;;;;;;5056588;28;20490;-72
2021/08/13 00:24:47;;;;;;;26.63;24.10;;;17.00;99.90;;;;;;5051501;28;20688;-70
2021/08/13 00:27:14;;;;;;;26.30;24.10;;;16.90;99.90;;;;;;5054828;28;20981;-72
2021/08/13 00:29:41;;;;;;;27.37;24.87;;;16.80;99.90;;;;;;5055561;28;20790;-70
2021/08/13 00:32:09;;;;;;;33.37;27.17;;;16.80;99.90;;;;;;5057211;28;21074;-70
2021/08/13 00:34:35;;;;;;;24.10;21.77;;;16.80;99.90;;;;;;5050273;28;20452;-71
2021/08/13 00:37:02;;;;;;;28.47;25.97;;;16.80;99.90;;;;;;5053329;28;20463;-72
2021/08/13 00:39:30;;;;;;;26.60;24.20;;;16.70;99.90;;;;;;5057167;28;20467;-70
2021/08/13 00:41:57;;;;;;;26.67;23.93;;;16.60;99.90;;;;;;5054256;28;20460;-70
2021/08/13 00:44:24;;;;;;;27.20;24.60;;;16.60;99.90;;;;;;5053414;28;20463;-70
2021/08/13 00:46:51;;;;;;;23.53;21.57;;;16.60;99.90;;;;;;5053318;28;20460;-70
2021/08/13 00:49:19;;;;;;;23.83;21.83;;;16.60;99.90;;;;;;5057657;28;20497;-70
2021/08/13 00:51:46;;;;;;;21.67;19.90;;;16.60;99.90;;;;;;5056315;28;20497;-71
2021/08/13 00:54:12;;;;;;;24.33;21.87;;;16.60;99.90;;;;;;5057461;28;20699;-71
2021/08/13 00:56:41;;;;;;;23.97;21.47;;;16.60;99.90;;;;;;5052166;28;20466;-71
2021/08/13 00:59:10;;;;;;;22.63;20.50;;;16.60;99.90;;;;;;5053516;28;20460;-71
2021/08/13 01:01:37;;;;;;;22.53;20.50;;;16.60;99.90;;;;;;5055117;28;20546;-69
2021/08/13 01:04:05;;;;;;;23.30;20.97;;;16.70;99.90;;;;;;5058383;28;20494;-70
2021/08/13 01:06:33;;;;;;;27.63;20.90;;;16.70;99.90;;;;;;5056596;28;20460;-70
2021/08/13 01:09:00;;;;;;;25.17;22.37;;;16.80;99.90;;;;;;5054922;28;20814;-69
2021/08/13 01:11:35;;;;;;;23.47;21.23;;;16.80;99.90;;;;;;5052918;28;20765;-70
2021/08/13 01:14:08;;;;;;;24.57;22.07;;;16.80;99.90;;;;;;5051030;28;20896;-72
2021/08/13 01:16:39;;;;;;;23.73;21.53;;;16.80;99.90;;;;;;5058968;28;20480;-70
2021/08/13 01:19:14;;;;;;;22.03;20.13;;;16.80;99.90;;;;;;5050239;28;20815;-70
2021/08/13 01:21:49;;;;;;;24.17;20.77;;;16.80;99.90;;;;;;5053578;28;20451;-70
2021/08/13 01:24:19;;;;;;;22.10;19.97;;;16.80;99.90;;;;;;5053508;28;20494;-70
2021/08/13 01:26:52;;;;;;;23.30;20.87;;;16.90;99.90;;;;;;5055003;28;20457;-71
2021/08/13 01:29:36;;;;;;;28.83;21.30;;;16.90;99.90;;;;;;5057467;28;20459;-70
2021/08/13 01:32:32;;;;;;;30.83;22.60;;;16.80;99.90;;;;;;5057555;28;20458;-70
2021/08/13 01:35:03;;;;;;;23.23;20.93;;;16.80;99.90;;;;;;5054923;28;20855;-70
2021/08/13 01:37:35;;;;;;;25.10;22.80;;;16.80;99.90;;;;;;5051567;28;20579;-70
2021/08/13 01:40:05;;;;;;;31.77;24.13;;;16.80;99.90;;;;;;5054834;28;20782;-72
2021/08/13 01:42:34;;;;;;;25.30;22.80;;;16.70;99.90;;;;;;5058546;28;20478;-72
2021/08/13 01:45:05;;;;;;;25.97;23.30;;;16.70;99.90;;;;;;5052271;28;20463;-70
2021/08/13 01:47:35;;;;;;;24.97;22.77;;;16.60;99.90;;;;;;5051171;28;20489;-70
2021/08/13 01:50:02;;;;;;;29.40;22.53;;;16.50;99.90;;;;;;5050977;28;20479;-71
2021/08/13 01:52:30;;;;;;;24.93;22.40;;;16.50;99.90;;;;;;5048084;28;20475;-72
2021/08/13 01:54:58;;;;;;;23.83;21.57;;;16.40;99.90;;;;;;5055019;28;20459;-70
2021/08/13 01:57:26;;;;;;;22.83;20.87;;;16.40;99.90;;;;;;5061208;28;21073;-70
2021/08/13 01:59:54;;;;;;;23.43;21.30;;;16.40;99.90;;;;;;5054795;28;20462;-70
2021/08/13 02:02:22;;;;;;;23.83;21.83;;;16.40;99.90;;;;;;5060486;28;20454;-70
2021/08/13 02:04:53;;;;;;;23.10;20.93;;;16.30;99.90;;;;;;5067052;28;20983;-70
2021/08/13 02:07:21;;;;;;;22.07;20.13;;;16.40;99.90;;;;;;5056218;28;20463;-69
2021/08/13 02:09:49;;;;;;;25.00;22.40;;;16.40;99.90;;;;;;5056323;28;20454;-70
2021/08/13 02:12:17;;;;;;;25.20;22.90;;;16.40;99.90;;;;;;5058682;28;20458;-72
2021/08/13 02:14:44;;;;;;;24.60;22.50;;;16.40;99.90;;;;;;5061908;28;20469;-70
2021/08/13 02:17:18;;;;;;;27.30;24.60;;;16.40;99.90;;;;;;5054585;28;20481;-69
2021/08/13 02:19:52;;;;;;;25.07;22.80;;;16.40;99.90;;;;;;5051481;28;20499;-70
2021/08/13 02:22:20;;;;;;;24.70;22.50;;;16.40;99.90;;;;;;5050843;28;20518;-70
2021/08/13 02:24:47;;;;;;;24.33;22.40;;;16.40;99.90;;;;;;5064612;28;20474;-70
2021/08/13 02:27:15;;;;;;;23.17;21.17;;;16.50;99.90;;;;;;5051921;28;20827;-70
2021/08/13 02:29:42;;;;;;;28.80;23.23;;;16.50;99.90;;;;;;5056501;28;20451;-70
2021/08/13 02:32:10;;;;;;;25.87;22.80;;;16.40;99.90;;;;;;5056053;28;20818;-70
2021/08/13 02:34:38;;;;;;;25.13;22.50;;;16.40;99.90;;;;;;5060097;28;20533;-70
2021/08/13 02:37:15;;;;;;;25.77;23.37;;;16.50;99.90;;;;;;5057947;28;20989;-70
2021/08/13 02:39:49;;;;;;;24.93;22.60;;;16.40;99.90;;;;;;5058141;28;20942;-70
2021/08/13 02:42:21;;;;;;;29.43;21.80;;;16.40;99.90;;;;;;5055134;28;20452;-69
2021/08/13 02:44:51;;;;;;;31.37;23.83;;;16.40;99.90;;;;;;5054092;28;20470;-70
2021/08/13 02:47:19;;;;;;;27.57;24.97;;;16.40;99.90;;;;;;5058351;28;20454;-70
2021/08/13 02:49:51;;;;;;;25.93;23.13;;;16.40;99.90;;;;;;5059975;28;20463;-71
2021/08/13 02:52:26;;;;;;;23.67;21.67;;;16.30;99.90;;;;;;5055316;28;20479;-70
2021/08/13 02:54:58;;;;;;;24.10;21.77;;;16.30;99.90;;;;;;5059966;28;20469;-71
2021/08/13 02:57:30;;;;;;;25.60;23.10;;;16.30;99.90;;;;;;5063035;28;20462;-70
2021/08/13 02:59:57;;;;;;;28.43;25.40;;;16.20;99.90;;;;;;5057973;28;20519;-71
2021/08/13 03:02:27;;;;;;;24.87;22.30;;;16.20;99.90;;;;;;5055245;28;20468;-70
2021/08/13 03:04:56;;;;;;;23.73;21.20;;;16.20;99.90;;;;;;5056225;28;20487;-71
2021/08/13 03:07:25;;;;;;;26.90;23.90;;;16.20;99.90;;;;;;5054761;28;20471;-71
2021/08/13 03:09:52;;;;;;;27.33;24.60;;;16.20;99.90;;;;;;5056515;28;20447;-72
2021/08/13 03:12:19;;;;;;;25.50;22.80;;;16.20;99.90;;;;;;5053666;28;20451;-70
2021/08/13 03:14:46;;;;;;;26.00;23.60;;;16.10;99.90;;;;;;5056105;28;20455;-70
2021/08/13 03:17:15;;;;;;;26.60;23.93;;;16.10;99.90;;;;;;5056726;28;20483;-70
2021/08/13 03:19:42;;;;;;;42.07;25.20;;;16.20;99.90;;;;;;5058721;28;20990;-71
2021/08/13 03:22:09;;;;;;;28.73;25.60;;;16.30;99.90;;;;;;5053762;28;20456;-70
2021/08/13 03:24:39;;;;;;;27.00;23.50;;;16.30;99.90;;;;;;5055320;28;21275;-71
2021/08/13 03:27:06;;;;;;;29.03;25.20;;;16.40;99.90;;;;;;5056456;28;20467;-70
2021/08/13 03:29:35;;;;;;;28.70;23.80;;;16.50;99.90;;;;;;5058626;28;20459;-70
2021/08/13 03:32:04;;;;;;;30.83;23.77;;;16.50;99.90;;;;;;5057087;28;20488;-71
2021/08/13 03:34:32;;;;;;;26.97;24.27;;;16.60;99.90;;;;;;5054099;28;20489;-70
2021/08/13 03:37:00;;;;;;;25.60;23.00;;;16.70;99.90;;;;;;5049569;28;20550;-70
2021/08/13 03:39:27;;;;;;;27.97;24.70;;;16.60;99.90;;;;;;5056831;28;20471;-71
2021/08/13 03:41:55;;;;;;;31.90;26.13;;;16.60;99.90;;;;;;5056915;28;20475;-72
2021/08/13 03:44:22;;;;;;;27.97;22.10;;;16.60;99.90;;;;;;5053575;28;20486;-71
2021/08/13 03:46:51;;;;;;;29.93;26.93;;;16.50;99.90;;;;;;5053661;28;20466;-70
2021/08/13 03:49:20;;;;;;;29.03;26.40;;;16.50;99.90;;;;;;5053703;28;20464;-70
2021/08/13 03:51:47;;;;;;;29.07;26.37;;;16.60;99.90;;;;;;5049219;28;20483;-69
2021/08/13 03:54:16;;;;;;;26.47;23.80;;;16.60;99.90;;;;;;5055113;28;20538;-71
2021/08/13 03:56:43;;;;;;;24.77;22.67;;;16.50;99.90;;;;;;5055514;28;20464;-71
2021/08/13 03:59:11;;;;;;;27.07;24.40;;;16.50;99.90;;;;;;5052540;28;20816;-69
2021/08/13 04:01:38;;;;;;;28.83;25.90;;;16.40;99.90;;;;;;5055006;28;20463;-72
2021/08/13 04:04:05;;;;;;;28.50;25.83;;;16.40;99.90;;;;;;5056503;28;20486;-72
2021/08/13 04:06:32;;;;;;;28.60;26.07;;;16.50;99.90;;;;;;5050594;28;20456;-70
2021/08/13 04:08:59;;;;;;;29.20;26.17;;;16.40;99.90;;;;;;5055771;28;20467;-70
2021/08/13 04:11:25;;;;;;;33.90;29.63;;;16.40;99.90;;;;;;5057793;28;20822;-71
2021/08/13 04:13:53;;;;;;;36.27;29.27;;;16.40;99.90;;;;;;5054933;28;20455;-70
2021/08/13 04:16:21;;;;;;;32.03;28.60;;;16.50;99.90;;;;;;5062377;28;20479;-71
2021/08/13 04:18:48;;;;;;;35.77;29.70;;;16.50;99.90;;;;;;5056429;28;20470;-70
2021/08/13 04:21:17;;;;;;;41.70;31.37;;;16.50;99.90;;;;;;5052846;28;20475;-71
2021/08/13 04:23:43;;;;;;;45.40;30.90;;;16.50;99.90;;;;;;5060440;28;20840;-70
2021/08/13 04:26:11;;;;;;;48.87;30.07;;;16.60;99.90;;;;;;5051099;28;20467;-71
2021/08/13 04:28:38;;;;;;;37.57;28.23;;;16.60;99.90;;;;;;5056696;28;20805;-70
2021/08/13 04:31:05;;;;;;;30.23;27.00;;;16.60;99.90;;;;;;5055472;28;20470;-71
2021/08/13 04:33:34;;;;;;;29.77;26.53;;;16.60;99.90;;;;;;5053503;28;20532;-71
2021/08/13 04:36:02;;;;;;;33.63;25.00;;;16.50;99.90;;;;;;5054232;28;20609;-71
2021/08/13 04:38:28;;;;;;;28.07;25.17;;;16.40;99.90;;;;;;5055761;28;20478;-71
2021/08/13 04:40:55;;;;;;;41.07;27.10;;;16.40;99.90;;;;;;5053197;28;20466;-72
2021/08/13 04:43:22;;;;;;;28.73;25.70;;;16.50;99.90;;;;;;5051995;28;20485;-73
2021/08/13 04:45:49;;;;;;;36.23;28.70;;;16.50;99.90;;;;;;5052870;28;20798;-70
2021/08/13 04:48:15;;;;;;;34.27;28.17;;;16.60;99.90;;;;;;5055184;28;20814;-71
2021/08/13 04:50:45;;;;;;;43.87;28.80;;;16.70;99.90;;;;;;5055354;28;20477;-71
2021/08/13 04:53:12;;;;;;;38.77;29.10;;;16.70;99.90;;;;;;5057334;28;20446;-71
2021/08/13 04:55:39;;;;;;;41.93;31.77;;;16.80;99.90;;;;;;5052386;28;20466;-71
2021/08/13 04:58:06;;;;;;;38.27;29.30;;;16.90;99.90;;;;;;5049951;28;20456;-70
2021/08/13 05:00:33;;;;;;;34.13;29.17;;;17.10;99.90;;;;;;5051681;28;20467;-70
2021/08/13 05:03:03;;;;;;;35.47;29.20;;;17.30;99.90;;;;;;5048807;28;20821;-71
2021/08/13 05:05:31;;;;;;;32.57;28.93;;;17.60;99.90;;;;;;5054957;28;20456;-71
2021/08/13 05:07:59;;;;;;;31.17;27.97;;;17.90;99.90;;;;;;5050744;28;21042;-70
2021/08/13 05:10:27;;;;;;;31.37;28.20;;;18.00;99.90;;;;;;5051487;28;20482;-70
2021/08/13 05:12:55;;;;;;;38.30;27.33;;;17.90;99.90;;;;;;5054027;28;20965;-70
2021/08/13 05:15:24;;;;;;;30.70;27.40;;;17.90;99.90;;;;;;5053574;28;20469;-70
2021/08/13 05:17:50;;;;;;;55.93;38.23;;;17.80;99.90;;;;;;5055626;28;20498;-70
2021/08/13 05:20:18;;;;;;;30.23;27.20;;;17.90;99.90;;;;;;5053660;28;20470;-70
2021/08/13 05:22:45;;;;;;;29.90;26.73;;;18.00;99.90;;;;;;5056493;28;20471;-70
2021/08/13 05:25:14;;;;;;;55.37;39.80;;;17.90;99.90;;;;;;5057621;28;20906;-70
2021/08/13 05:27:41;;;;;;;30.83;27.70;;;17.80;99.90;;;;;;5057821;28;20448;-71
2021/08/13 05:30:09;;;;;;;36.80;29.90;;;17.80;99.90;;;;;;5060552;28;20975;-71
2021/08/13 05:32:39;;;;;;;38.50;31.67;;;18.00;99.90;;;;;;5051810;28;20451;-69
2021/08/13 05:35:06;;;;;;;30.73;27.80;;;18.10;99.90;;;;;;5055567;28;20464;-70
2021/08/13 05:37:34;;;;;;;52.63;37.40;;;18.10;99.90;;;;;;5058261;28;20462;-72
2021/08/13 05:40:03;;;;;;;31.90;27.97;;;18.30;99.90;;;;;;5059148;28;20474;-70
2021/08/13 05:42:31;;;;;;;31.87;28.57;;;18.20;99.90;;;;;;5057659;28;20958;-70
2021/08/13 05:44:58;;;;;;;31.73;27.90;;;18.40;99.90;;;;;;5055679;28;20491;-70
2021/08/13 05:47:26;;;;;;;37.47;30.83;;;18.60;99.90;;;;;;5054921;28;20463;-71
2021/08/13 05:49:52;;;;;;;32.50;27.73;;;18.60;99.90;;;;;;5055272;28;20458;-71
2021/08/13 05:52:19;;;;;;;35.60;29.30;;;18.80;99.90;;;;;;5056093;28;20974;-71
2021/08/13 05:54:46;;;;;;;34.93;31.40;;;18.90;99.90;;;;;;5057804;28;20953;-71
2021/08/13 05:57:13;;;;;;;34.30;30.70;;;18.90;99.90;;;;;;5057474;28;20866;-71
2021/08/13 05:59:41;;;;;;;39.93;31.87;;;19.10;99.90;;;;;;5053381;28;20477;-70
2021/08/13 06:02:08;;;;;;;33.27;29.77;;;19.30;99.90;;;;;;5057112;28;21080;-71
2021/08/13 06:04:36;;;;;;;35.83;30.77;;;19.50;99.90;;;;;;5055804;28;20533;-71
2021/08/13 06:07:03;;;;;;;34.13;30.43;;;19.70;99.90;;;;;;5054781;28;20889;-72
2021/08/13 06:09:30;;;;;;;36.40;31.40;;;19.80;99.90;;;;;;5060493;28;20475;-71
2021/08/13 06:11:57;;;;;;;30.50;27.67;;;19.90;99.90;;;;;;5058525;28;20458;-70
2021/08/13 06:14:24;;;;;;;36.00;31.03;;;19.90;99.90;;;;;;5061743;28;20462;-71
2021/08/13 06:16:52;;;;;;;39.17;32.80;;;20.00;99.90;;;;;;5054172;28;20486;-71
2021/08/13 06:19:19;;;;;;;37.03;33.23;;;19.80;99.90;;;;;;5056464;28;20458;-71
2021/08/13 06:21:48;;;;;;;38.47;34.27;;;19.80;99.90;;;;;;5058440;28;20497;-70
2021/08/13 06:24:16;;;;;;;39.67;33.23;;;19.90;99.90;;;;;;5056392;28;20819;-70
2021/08/13 06:26:44;;;;;;;38.07;34.20;;;20.10;99.90;;;;;;5059511;28;20857;-71
2021/08/13 06:29:11;;;;;;;40.30;36.07;;;20.20;99.90;;;;;;5051834;28;20981;-71
2021/08/13 06:31:37;;;;;;;38.57;34.37;;;20.20;99.90;;;;;;5059814;28;20446;-70
2021/08/13 06:34:06;;;;;;;43.47;37.57;;;20.20;99.90;;;;;;5056907;28;20463;-72
2021/08/13 06:36:34;;;;;;;41.50;37.00;;;20.20;99.90;;;;;;5054591;28;20470;-70
2021/08/13 06:39:01;;;;;;;43.13;38.00;;;20.20;99.90;;;;;;5059848;28;20864;-71
2021/08/13 06:41:28;;;;;;;41.67;37.43;;;20.30;99.90;;;;;;5057022;28;20959;-71
2021/08/13 06:43:56;;;;;;;44.77;40.17;;;20.40;99.90;;;;;;5058364;28;20491;-71
2021/08/13 06:46:23;;;;;;;45.60;40.70;;;20.40;99.90;;;;;;5056186;28;20464;-71
2021/08/13 06:48:50;;;;;;;47.70;42.50;;;20.50;99.90;;;;;;5057973;28;20458;-70
2021/08/13 06:51:20;;;;;;;48.20;42.90;;;20.50;99.90;;;;;;5054333;28;20478;-73
2021/08/13 06:53:47;;;;;;;51.70;43.77;;;20.50;99.90;;;;;;5057833;28;20790;-71
2021/08/13 06:56:15;;;;;;;48.20;42.33;;;20.50;99.90;;;;;;5057171;28;20451;-71
2021/08/13 06:58:41;;;;;;;48.97;43.67;;;20.50;99.90;;;;;;5049474;28;20463;-72
2021/08/13 07:01:08;;;;;;;50.00;43.27;;;20.50;99.90;;;;;;5056451;28;20459;-71
2021/08/13 07:03:35;;;;;;;52.00;43.47;;;20.60;99.90;;;;;;5054617;28;20498;-71
2021/08/13 07:06:03;;;;;;;53.67;43.10;;;20.60;99.90;;;;;;5058242;28;20491;-71
2021/08/13 07:08:32;;;;;;;49.20;42.37;;;20.70;99.90;;;;;;5057252;28;20470;-71
2021/08/13 07:10:59;;;;;;;51.10;40.40;;;20.80;99.90;;;;;;5055339;28;20470;-71
2021/08/13 07:13:25;;;;;;;44.87;39.90;;;21.00;99.90;;;;;;5064526;28;20463;-71
2021/08/13 07:15:52;;;;;;;43.77;39.17;;;21.00;99.90;;;;;;5054160;28;20827;-69
2021/08/13 07:18:19;;;;;;;43.83;39.03;;;21.00;99.90;;;;;;5058991;28;20455;-72
2021/08/13 07:20:45;;;;;;;44.73;39.43;;;21.20;99.90;;;;;;5058563;28;20471;-73
2021/08/13 07:23:12;;;;;;;44.27;38.60;;;21.20;99.90;;;;;;5058547;28;20741;-71
2021/08/13 07:25:41;;;;;;;40.60;36.23;;;21.30;99.90;;;;;;5054932;28;21020;-71
2021/08/13 07:28:08;;;;;;;41.90;37.67;;;21.50;99.90;;;;;;5050169;28;20518;-71
2021/08/13 07:30:35;;;;;;;45.97;40.67;;;21.60;99.90;;;;;;5054576;28;20601;-71
2021/08/13 07:33:03;;;;;;;42.00;37.17;;;21.90;99.90;;;;;;5047759;28;20550;-71
2021/08/13 07:35:30;;;;;;;41.03;35.90;;;22.10;99.90;;;;;;5056242;28;20459;-71
2021/08/13 07:37:58;;;;;;;39.10;35.00;;;22.10;99.90;;;;;;5055635;28;20463;-71
2021/08/13 07:40:25;;;;;;;36.87;33.27;;;22.30;99.90;;;;;;5054438;28;20465;-71
2021/08/13 07:42:54;;;;;;;36.50;32.90;;;22.20;99.90;;;;;;5046738;28;20460;-71
2021/08/13 07:45:22;;;;;;;33.50;30.50;;;22.20;99.90;;;;;;5054129;28;21021;-73
2021/08/13 07:47:49;;;;;;;35.20;31.93;;;22.30;99.90;;;;;;5047479;28;20949;-71
2021/08/13 07:50:16;;;;;;;34.87;31.43;;;22.30;99.90;;;;;;5052646;28;20459;-71
2021/08/13 07:52:43;;;;;;;34.60;31.00;;;22.30;99.90;;;;;;5051006;28;20471;-71
2021/08/13 07:55:11;;;;;;;35.33;31.73;;;22.30;99.90;;;;;;5046671;28;20468;-71
2021/08/13 07:57:37;;;;;;;33.03;29.93;;;22.50;99.90;;;;;;5053154;28;20958;-71
2021/08/13 08:00:07;;;;;;;31.77;28.80;;;22.40;99.90;;;;;;5056494;28;20455;-71
2021/08/13 08:02:34;;;;;;;34.17;30.50;;;22.40;99.90;;;;;;5046700;28;20466;-71
2021/08/13 08:05:01;;;;;;;33.23;29.73;;;22.40;99.90;;;;;;5046832;28;20490;-73
2021/08/13 08:07:29;;;;;;;32.87;29.70;;;22.50;99.90;;;;;;5052032;28;20463;-70
2021/08/13 08:09:56;;;;;;;30.93;28.13;;;22.50;99.90;;;;;;5050029;28;20460;-70
2021/08/13 08:12:22;;;;;;;30.83;28.00;;;22.60;99.90;;;;;;5051448;28;20874;-71
2021/08/13 08:14:50;;;;;;;30.90;27.70;;;22.30;99.90;;;;;;5052141;28;20471;-70
2021/08/13 08:17:18;;;;;;;29.10;25.80;;;22.40;99.90;;;;;;5057153;28;20484;-71
2021/08/13 08:19:45;;;;;;;27.97;25.47;;;22.50;99.90;;;;;;5057195;28;20459;-71
2021/08/13 08:22:12;;;;;;;27.63;25.20;;;22.50;99.90;;;;;;5052889;28;20490;-74
2021/08/13 08:24:40;;;;;;;28.07;25.57;;;22.70;99.90;;;;;;5053218;28;21108;-71
2021/08/13 08:27:07;;;;;;;25.40;22.93;;;22.90;99.90;;;;;;5046249;28;20464;-71
2021/08/13 08:29:34;;;;;;;25.13;23.07;;;22.90;99.90;;;;;;5059832;28;20459;-71
2021/08/13 08:32:01;;;;;;;24.10;22.20;;;22.80;99.90;;;;;;5051516;28;20467;-71
2021/08/13 08:34:29;;;;;;;24.83;22.30;;;22.90;99.90;;;;;;5051922;28;20984;-70
2021/08/13 08:36:56;;;;;;;22.53;20.60;;;22.80;99.90;;;;;;5055336;28;20455;-72
2021/08/13 08:39:23;;;;;;;21.90;20.03;;;22.80;99.90;;;;;;5051934;28;20459;-70
2021/08/13 08:41:51;;;;;;;30.43;22.13;;;22.80;99.90;;;;;;5052528;28;20825;-71
2021/08/13 08:44:18;;;;;;;21.83;20.20;;;22.90;99.90;;;;;;5053774;28;20550;-71
2021/08/13 08:46:46;;;;;;;22.30;20.60;;;23.20;99.90;;;;;;5053382;28;20563;-72
2021/08/13 08:49:14;;;;;;;23.40;19.63;;;23.60;99.90;;;;;;5052084;28;20466;-72
2021/08/13 08:51:43;;;;;;;20.83;19.27;;;23.60;99.90;;;;;;5052678;28;20470;-73
2021/08/13 08:54:11;;;;;;;21.47;19.80;;;23.80;99.90;;;;;;5048970;28;20460;-71
2021/08/13 08:56:39;;;;;;;20.77;19.20;;;24.10;99.90;;;;;;5046513;28;21097;-71
2021/08/13 08:59:07;;;;;;;21.10;19.10;;;24.20;99.90;;;;;;5050412;28;20871;-72
2021/08/13 09:01:35;;;;;;;22.23;20.53;;;24.20;99.90;;;;;;5048858;28;20460;-71
2021/08/13 09:04:02;;;;;;;20.63;18.93;;;24.50;99.90;;;;;;5048714;28;20471;-71
2021/08/13 09:06:29;;;;;;;21.40;19.70;;;24.60;99.90;;;;;;5045946;28;21107;-73
2021/08/13 09:08:58;;;;;;;22.23;20.33;;;24.30;99.90;;;;;;5055523;28;20468;-74
2021/08/13 09:11:25;;;;;;;20.03;18.57;;;24.30;99.90;;;;;;5051542;28;20466;-72
2021/08/13 09:14:00;;;;;;;20.23;18.63;;;24.40;99.90;;;;;;5049980;28;20836;-72
2021/08/13 09:16:27;;;;;;;19.93;18.33;;;24.80;99.90;;;;;;5049227;28;20483;-71
2021/08/13 09:18:58;;;;;;;20.40;18.40;;;24.70;99.90;;;;;;5055880;28;20470;-71
2021/08/13 09:21:25;;;;;;;17.63;16.53;;;24.70;99.90;;;;;;5045031;28;20969;-74
2021/08/13 09:23:54;;;;;;;19.03;17.53;;;24.50;99.90;;;;;;5048112;28;20496;-71
2021/08/13 09:26:24;;;;;;;17.63;16.33;;;24.70;99.90;;;;;;5051193;28;21063;-71
2021/08/13 09:28:53;;;;;;;17.80;16.57;;;24.90;99.90;;;;;;5054654;28;20462;-71
2021/08/13 09:31:21;;;;;;;17.00;15.63;;;25.60;99.90;;;;;;5056079;28;20858;-71
2021/08/13 09:33:50;;;;;;;16.97;15.33;;;26.10;99.90;;;;;;5043595;28;20460;-71
2021/08/13 09:36:20;;;;;;;16.17;15.27;;;26.50;99.90;;;;;;5049702;28;20955;-73
2021/08/13 09:38:48;;;;;;;16.03;14.97;;;26.70;99.90;;;;;;5053914;28;20808;-69
2021/08/13 09:41:17;;;;;;;16.63;15.63;;;26.80;99.90;;;;;;5052197;28;20828;-71
2021/08/13 09:44:00;;;;;;;16.13;15.13;;;27.00;99.90;;;;;;5053934;28;20905;-73
2021/08/13 09:46:28;;;;;;;16.17;15.17;;;27.40;99.90;;;;;;5051777;28;20495;-73
2021/08/13 09:49:13;;;;;;;16.40;15.40;;;27.60;99.90;;;;;;5051554;28;20460;-70
2021/08/13 09:51:41;;;;;;;16.60;15.70;;;27.20;99.90;;;;;;5049107;28;20520;-74
2021/08/13 09:54:09;;;;;;;16.50;15.70;;;27.20;99.90;;;;;;5051801;28;20858;-71
2021/08/13 09:56:37;;;;;;;15.97;14.97;;;27.70;99.90;;;;;;5049673;28;20550;-71
2021/08/13 09:59:14;;;;;;;15.80;14.90;;;28.70;99.90;;;;;;5055858;28;20462;-70
2021/08/13 10:01:44;;;;;;;16.17;15.07;;;28.40;99.90;;;;;;5049737;28;20827;-71
2021/08/13 10:04:12;;;;;;;15.90;15.00;;;28.20;99.90;;;;;;5052701;28;20523;-70
2021/08/13 10:06:40;;;;;;;15.47;14.67;;;27.50;99.90;;;;;;5050004;28;20586;-70
2021/08/13 10:09:21;;;;;;;14.83;13.90;;;27.60;99.90;;;;;;5050633;28;20545;-73
2021/08/13 20:25:05;;;;;;;18.00;16.07;;;17.50;99.90;;;;;;4866710;29;20721;-69
2021/08/13 20:27:31;;;;;;;22.27;16.00;;;17.40;99.90;;;;;;4979709;28;20792;-70
2021/08/13 20:29:59;;;;;;;17.67;16.20;;;17.40;99.90;;;;;;5048295;28;20826;-72
2021/08/13 20:32:27;;;;;;;16.80;15.40;;;17.30;99.90;;;;;;5059385;28;20482;-70
2021/08/13 20:34:53;;;;;;;16.93;15.33;;;17.10;99.90;;;;;;5051964;28;20455;-70
2021/08/13 20:37:20;;;;;;;18.43;16.70;;;17.10;99.90;;;;;;5059795;28;20459;-72
2021/08/13 20:39:47;;;;;;;18.07;16.40;;;17.00;99.90;;;;;;5055888;28;20492;-70
2021/08/13 20:42:15;;;;;;;22.77;17.13;;;16.90;99.90;;;;;;5061178;28;20459;-72
2021/08/13 20:44:42;;;;;;;31.33;19.10;;;16.80;99.90;;;;;;5051379;28;20464;-70
2021/08/13 20:47:09;;;;;;;30.60;18.57;;;16.70;99.90;;;;;;5055652;28;20567;-72
2021/08/13 20:49:37;;;;;;;20.00;16.70;;;16.70;99.90;;;;;;5056381;28;20491;-72
2021/08/13 20:52:04;;;;;;;17.70;16.07;;;16.70;99.90;;;;;;5056394;28;20472;-70
2021/08/13 20:54:31;;;;;;;20.57;18.57;;;16.70;99.90;;;;;;5055170;28;20451;-70
2021/08/13 20:56:59;;;;;;;19.97;18.20;;;16.60;99.90;;;;;;5058160;28;20471;-69
2021/08/13 20:59:26;;;;;;;17.90;16.53;;;16.50;99.90;;;;;;5051421;28;20660;-69
2021/08/13 21:01:52;;;;;;;24.67;16.67;;;16.50;99.90;;;;;;5053725;28;20881;-70
2021/08/13 21:04:20;;;;;;;18.37;16.70;;;16.50;99.90;;;;;;5056492;28;20466;-71
2021/08/13 21:06:48;;;;;;;21.23;17.40;;;16.40;99.90;;;;;;5052938;28;20467;-71
2021/08/13 21:09:15;;;;;;;21.33;18.70;;;16.40;99.90;;;;;;5057791;28;20997;-72
2021/08/13 21:11:42;;;;;;;22.30;18.63;;;16.30;99.90;;;;;;5052787;28;20444;-70
2021/08/13 21:14:09;;;;;;;19.00;17.40;;;16.30;99.90;;;;;;5047693;28;20478;-70
2021/08/13 21:16:38;;;;;;;18.30;16.80;;;16.30;99.90;;;;;;5051708;28;20826;-71
2021/08/13 21:19:04;;;;;;;21.13;19.00;;;16.20;99.90;;;;;;5053622;28;20880;-70
2021/08/13 21:21:33;;;;;;;23.63;19.10;;;16.20;99.90;;;;;;5051267;28;21051;-69
2021/08/13 21:24:02;;;;;;;19.43;17.60;;;16.20;99.90;;;;;;5054043;28;20455;-73
2021/08/13 21:26:30;;;;;;;17.03;15.80;;;16.20;99.90;;;;;;5053747;28;20456;-70
2021/08/13 21:28:57;;;;;;;18.20;16.50;;;16.10;99.90;;;;;;5052986;28;20498;-70
2021/08/13 21:31:24;;;;;;;18.33;17.00;;;16.10;99.90;;;;;;5052770;28;20456;-70
2021/08/13 21:33:52;;;;;;;18.83;17.43;;;16.00;99.90;;;;;;5059335;28;20786;-72
2021/08/13 21:36:19;;;;;;;20.00;18.20;;;15.90;99.90;;;;;;5051488;28;20731;-70
2021/08/13 21:38:46;;;;;;;19.80;17.57;;;15.80;99.90;;;;;;5061227;28;20476;-70
2021/08/13 21:41:14;;;;;;;19.30;18.00;;;15.80;99.90;;;;;;5053260;28;20798;-70
2021/08/13 21:43:45;;;;;;;18.67;17.37;;;15.80;99.90;;;;;;5048752;28;20957;-70
2021/08/13 21:46:12;;;;;;;19.50;17.67;;;15.70;99.90;;;;;;5050438;28;20462;-70
2021/08/13 21:48:39;;;;;;;18.90;17.17;;;15.70;99.90;;;;;;5049197;28;20483;-73
2021/08/13 21:51:06;;;;;;;19.50;17.83;;;15.60;99.90;;;;;;5048923;28;20475;-70
2021/08/13 21:53:33;;;;;;;19.80;18.40;;;15.60;99.90;;;;;;5050374;28;20460;-72
2021/08/13 21:56:00;;;;;;;19.63;18.20;;;15.60;99.90;;;;;;5052038;28;20463;-70
2021/08/13 21:58:29;;;;;;;19.83;18.00;;;15.50;99.90;;;;;;5054875;28;20494;-70
2021/08/13 22:00:55;;;;;;;20.20;18.27;;;15.50;99.90;;;;;;5053489;28;20545;-70
2021/08/13 22:03:23;;;;;;;19.07;17.20;;;15.60;99.90;;;;;;5051283;28;20466;-70
2021/08/13 22:05:50;;;;;;;19.63;17.93;;;15.50;99.90;;;;;;5055671;28;20459;-72
2021/08/13 22:08:17;;;;;;;18.97;17.67;;;15.50;99.90;;;;;;5052199;28;20447;-71
2021/08/13 22:10:44;;;;;;;20.47;18.50;;;15.50;99.90;;;;;;5051829;28;20520;-71
2021/08/13 22:13:11;;;;;;;18.97;17.50;;;15.40;99.90;;;;;;5058607;28;20818;-72
2021/08/13 22:15:39;;;;;;;19.93;18.43;;;15.40;99.90;;;;;;5062090;28;20483;-70
2021/08/13 22:18:07;;;;;;;20.53;18.97;;;15.40;99.90;;;;;;5054631;28;20459;-70
2021/08/13 22:20:34;;;;;;;20.73;18.40;;;15.40;99.90;;;;;;5051335;28;20483;-70
2021/08/13 22:23:03;;;;;;;22.97;20.90;;;15.30;99.90;;;;;;5057614;28;20463;-70
2021/08/13 22:25:35;;;;;;;22.40;20.57;;;15.30;99.90;;;;;;5058659;28;20546;-70
2021/08/13 22:28:03;;;;;;;21.37;19.67;;;15.30;99.90;;;;;;5056354;28;20567;-70
2021/08/13 22:30:30;;;;;;;21.97;20.10;;;15.30;99.90;;;;;;5059397;28;20497;-70
2021/08/13 22:32:58;;;;;;;22.87;20.77;;;15.30;99.90;;;;;;5059761;28;20463;-69
2021/08/13 22:35:25;;;;;;;22.37;20.20;;;15.20;99.90;;;;;;5057735;28;20962;-69
2021/08/13 22:37:53;;;;;;;23.90;21.57;;;15.20;99.90;;;;;;5057221;28;20460;-69
2021/08/13 22:40:20;;;;;;;24.20;21.80;;;15.30;99.90;;;;;;5053894;28;20461;-69
2021/08/13 22:42:47;;;;;;;22.57;20.30;;;15.20;99.90;;;;;;5063284;28;20887;-70
2021/08/13 22:45:14;;;;;;;22.67;20.87;;;15.10;99.90;;;;;;5053848;28;20460;-71